Kezdőlap
METAR-TAF:

METAR-TAF

Repülőterek :

Bagdad, Irak

földrajzi szélesség: 33-15-45N, földrajzi hosszúság: 44-14-04E, magasság: 35 m

Jelenlegi meteorológiai megfigyelések

A jelentés 1 órával és 0 perccel ezelõtt készült, 00:00 UTC
Északi szél 4 kt
Hőmérséklet 15°C
Páratartalom 77%
Légköri nyomás 1013 hPa
Látótávolság 10 km, vagy több
felhőtlen 1500 m magasságban, és nincs gomolyfelhõ

METAR: ORBI 240000Z 35004KT CAVOK 15/11 Q1013 NOSIG

Idő: 04:00 (01:00 UTC)

Előrejelzés

A jelentés 3 órával és 0 perccel ezelõtt készült, 22:00 UTC
Az előrejelzés 24-én 00 óra UTC és 24-én 24 óra UTC között érvényes
Északnyugati szél 5 kt
Látótávolság: 8000 m
24-én 04 óra UTC és 24-én 07 óra UTC között fokozatosan kialakuló
Különbözõ irányokból fújó szél 3 kt

TAF: ORBI 232200Z 2400/2424 31005KT 8000 NSC BECMG 2404/2407 VRB03KT

Meteorológiai megfigyelések és előrejelzések több, mint 4000 repülőtéren (METAR és TAF jelentéseket).

A térképen piros és sárga pontok jelzik az elérhető meteorológiai állomásokat.

Mozgassa az egeret a pont fölött, hogy megjelenjen az állomás neve.

Azután kattintson az időjárási megfigyelések és előrejelzések megtekintéséhez.

A térkép megváltoztatása: kattintson a fekete keresztel jelölt zöld gombra ráközelítéshez, a vonallal jelölt zöld gombra távolításhoz, vagy a zöld nyilakra a szomszédos térképek eléréséhez.


METAR-TAF: